sensor_id;sensor_type;location;lat;lon;timestamp;temperature;humidity
14397;DHT22;50653;47.810;13.022;2023-07-31T00:01:44;18.10;99.90
14397;DHT22;50653;47.810;13.022;2023-07-31T00:04:09;18.10;99.90
14397;DHT22;50653;47.810;13.022;2023-07-31T00:06:35;18.10;99.90
14397;DHT22;50653;47.810;13.022;2023-07-31T00:09:00;18.00;99.90
14397;DHT22;50653;47.810;13.022;2023-07-31T00:11:26;18.00;99.90
14397;DHT22;50653;47.810;13.022;2023-07-31T00:13:53;18.00;99.90
14397;DHT22;50653;47.810;13.022;2023-07-31T00:16:19;18.00;99.90
14397;DHT22;50653;47.810;13.022;2023-07-31T00:18:45;18.00;99.90
14397;DHT22;50653;47.810;13.022;2023-07-31T00:21:10;17.90;99.90
14397;DHT22;50653;47.810;13.022;2023-07-31T00:23:36;17.80;99.90
14397;DHT22;50653;47.810;13.022;2023-07-31T00:26:01;17.80;99.90
14397;DHT22;50653;47.810;13.022;2023-07-31T00:28:27;17.80;99.90
14397;DHT22;50653;47.810;13.022;2023-07-31T00:30:54;17.90;99.90
14397;DHT22;50653;47.810;13.022;2023-07-31T00:33:19;17.90;99.90
14397;DHT22;50653;47.810;13.022;2023-07-31T00:35:45;17.90;99.90
14397;DHT22;50653;47.810;13.022;2023-07-31T00:38:11;17.80;99.90
14397;DHT22;50653;47.810;13.022;2023-07-31T00:40:37;17.90;99.90
14397;DHT22;50653;47.810;13.022;2023-07-31T00:43:04;17.80;99.90
14397;DHT22;50653;47.810;13.022;2023-07-31T00:45:29;17.80;99.90
14397;DHT22;50653;47.810;13.022;2023-07-31T00:47:56;17.80;99.90
14397;DHT22;50653;47.810;13.022;2023-07-31T00:50:25;17.80;99.90
14397;DHT22;50653;47.810;13.022;2023-07-31T00:52:51;17.80;99.90
14397;DHT22;50653;47.810;13.022;2023-07-31T00:55:17;17.80;99.90
14397;DHT22;50653;47.810;13.022;2023-07-31T00:57:45;17.80;99.90
14397;DHT22;50653;47.810;13.022;2023-07-31T01:00:11;17.70;99.90
14397;DHT22;50653;47.810;13.022;2023-07-31T01:02:37;17.70;99.90
14397;DHT22;50653;47.810;13.022;2023-07-31T01:05:03;17.70;99.90
14397;DHT22;50653;47.810;13.022;2023-07-31T01:08:00;17.70;99.90
14397;DHT22;50653;47.810;13.022;2023-07-31T01:10:40;17.60;99.90
14397;DHT22;50653;47.810;13.022;2023-07-31T01:13:09;17.60;99.90
14397;DHT22;50653;47.810;13.022;2023-07-31T01:15:36;17.60;99.90
14397;DHT22;50653;47.810;13.022;2023-07-31T01:18:03;17.60;99.90
14397;DHT22;50653;47.810;13.022;2023-07-31T01:20:30;17.50;99.90
14397;DHT22;50653;47.810;13.022;2023-07-31T01:26:15;17.50;99.90
14397;DHT22;50653;47.810;13.022;2023-07-31T01:28:50;17.50;99.90
14397;DHT22;50653;47.810;13.022;2023-07-31T01:31:24;17.40;99.90
14397;DHT22;50653;47.810;13.022;2023-07-31T01:33:54;17.30;99.90
14397;DHT22;50653;47.810;13.022;2023-07-31T01:36:22;17.30;99.90
14397;DHT22;50653;47.810;13.022;2023-07-31T01:38:48;17.30;99.90
14397;DHT22;50653;47.810;13.022;2023-07-31T01:41:16;17.30;99.90
14397;DHT22;50653;47.810;13.022;2023-07-31T01:43:42;17.30;99.90
14397;DHT22;50653;47.810;13.022;2023-07-31T01:46:07;17.20;99.90
14397;DHT22;50653;47.810;13.022;2023-07-31T01:48:33;17.20;99.90
14397;DHT22;50653;47.810;13.022;2023-07-31T01:51:01;17.20;99.90
14397;DHT22;50653;47.810;13.022;2023-07-31T01:53:27;17.10;99.90
14397;DHT22;50653;47.810;13.022;2023-07-31T01:55:53;17.10;99.90
14397;DHT22;50653;47.810;13.022;2023-07-31T01:58:18;17.10;99.90
14397;DHT22;50653;47.810;13.022;2023-07-31T02:00:44;17.10;99.90
14397;DHT22;50653;47.810;13.022;2023-07-31T02:03:10;17.10;99.90
14397;DHT22;50653;47.810;13.022;2023-07-31T02:05:35;17.10;99.90
14397;DHT22;50653;47.810;13.022;2023-07-31T02:08:01;17.10;99.90
14397;DHT22;50653;47.810;13.022;2023-07-31T02:10:27;17.10;99.90
14397;DHT22;50653;47.810;13.022;2023-07-31T02:12:52;17.10;99.90
14397;DHT22;50653;47.810;13.022;2023-07-31T02:15:18;17.10;99.90
14397;DHT22;50653;47.810;13.022;2023-07-31T02:17:44;17.20;99.90
14397;DHT22;50653;47.810;13.022;2023-07-31T02:20:10;17.20;99.90
14397;DHT22;50653;47.810;13.022;2023-07-31T02:22:35;17.10;99.90
14397;DHT22;50653;47.810;13.022;2023-07-31T02:25:02;17.20;99.90
14397;DHT22;50653;47.810;13.022;2023-07-31T02:27:27;17.20;99.90
14397;DHT22;50653;47.810;13.022;2023-07-31T02:29:53;17.10;99.90
14397;DHT22;50653;47.810;13.022;2023-07-31T02:32:20;17.10;99.90
14397;DHT22;50653;47.810;13.022;2023-07-31T02:34:45;17.20;99.90
14397;DHT22;50653;47.810;13.022;2023-07-31T02:37:11;17.10;99.90
14397;DHT22;50653;47.810;13.022;2023-07-31T02:39:37;17.10;99.90
14397;DHT22;50653;47.810;13.022;2023-07-31T02:42:02;17.10;99.90
14397;DHT22;50653;47.810;13.022;2023-07-31T02:44:28;17.10;99.90
14397;DHT22;50653;47.810;13.022;2023-07-31T02:46:54;17.10;99.90
14397;DHT22;50653;47.810;13.022;2023-07-31T02:49:19;17.10;99.90
14397;DHT22;50653;47.810;13.022;2023-07-31T02:51:46;17.10;99.90
14397;DHT22;50653;47.810;13.022;2023-07-31T02:54:11;17.10;99.90
14397;DHT22;50653;47.810;13.022;2023-07-31T02:56:37;17.00;99.90
14397;DHT22;50653;47.810;13.022;2023-07-31T02:59:02;17.10;99.90
14397;DHT22;50653;47.810;13.022;2023-07-31T03:01:28;17.10;99.90
14397;DHT22;50653;47.810;13.022;2023-07-31T03:03:54;16.90;99.90
14397;DHT22;50653;47.810;13.022;2023-07-31T03:06:19;17.00;99.90
14397;DHT22;50653;47.810;13.022;2023-07-31T03:08:45;17.10;99.90
14397;DHT22;50653;47.810;13.022;2023-07-31T03:11:11;17.10;99.90
14397;DHT22;50653;47.810;13.022;2023-07-31T03:13:36;17.10;99.90
14397;DHT22;50653;47.810;13.022;2023-07-31T03:16:02;17.20;99.90
14397;DHT22;50653;47.810;13.022;2023-07-31T03:18:28;17.20;99.90
14397;DHT22;50653;47.810;13.022;2023-07-31T03:20:53;17.20;99.90
14397;DHT22;50653;47.810;13.022;2023-07-31T03:23:19;17.10;99.90
14397;DHT22;50653;47.810;13.022;2023-07-31T03:26:00;17.10;99.90
14397;DHT22;50653;47.810;13.022;2023-07-31T03:28:30;17.10;99.90
14397;DHT22;50653;47.810;13.022;2023-07-31T03:30:55;17.10;99.90
14397;DHT22;50653;47.810;13.022;2023-07-31T03:33:21;17.10;99.90
14397;DHT22;50653;47.810;13.022;2023-07-31T03:35:47;17.10;99.90
14397;DHT22;50653;47.810;13.022;2023-07-31T03:38:12;17.00;99.90
14397;DHT22;50653;47.810;13.022;2023-07-31T03:40:38;17.00;99.90
14397;DHT22;50653;47.810;13.022;2023-07-31T03:43:05;16.90;99.90
14397;DHT22;50653;47.810;13.022;2023-07-31T03:45:30;16.80;99.90
14397;DHT22;50653;47.810;13.022;2023-07-31T03:47:56;16.80;99.90
14397;DHT22;50653;47.810;13.022;2023-07-31T03:50:24;16.80;99.90
14397;DHT22;50653;47.810;13.022;2023-07-31T03:52:50;16.70;99.90
14397;DHT22;50653;47.810;13.022;2023-07-31T03:55:16;16.60;99.90
14397;DHT22;50653;47.810;13.022;2023-07-31T03:57:42;16.70;99.90
14397;DHT22;50653;47.810;13.022;2023-07-31T04:00:08;16.60;99.90
14397;DHT22;50653;47.810;13.022;2023-07-31T04:02:37;16.60;99.90
14397;DHT22;50653;47.810;13.022;2023-07-31T04:05:03;16.60;99.90
14397;DHT22;50653;47.810;13.022;2023-07-31T04:07:29;16.70;99.90
14397;DHT22;50653;47.810;13.022;2023-07-31T04:09:56;16.70;99.90
14397;DHT22;50653;47.810;13.022;2023-07-31T04:12:22;16.70;99.90
14397;DHT22;50653;47.810;13.022;2023-07-31T04:14:48;16.60;99.90
14397;DHT22;50653;47.810;13.022;2023-07-31T04:17:13;16.70;99.90
14397;DHT22;50653;47.810;13.022;2023-07-31T04:19:39;16.60;99.90
14397;DHT22;50653;47.810;13.022;2023-07-31T04:22:05;16.70;99.90
14397;DHT22;50653;47.810;13.022;2023-07-31T04:24:30;16.60;99.90
14397;DHT22;50653;47.810;13.022;2023-07-31T04:26:56;16.70;99.90
14397;DHT22;50653;47.810;13.022;2023-07-31T04:29:22;16.80;99.90
14397;DHT22;50653;47.810;13.022;2023-07-31T04:31:48;16.80;99.90
14397;DHT22;50653;47.810;13.022;2023-07-31T04:34:14;16.80;99.90
14397;DHT22;50653;47.810;13.022;2023-07-31T04:36:39;16.90;99.90
14397;DHT22;50653;47.810;13.022;2023-07-31T04:39:05;16.90;99.90
14397;DHT22;50653;47.810;13.022;2023-07-31T04:41:31;16.90;99.90
14397;DHT22;50653;47.810;13.022;2023-07-31T04:43:56;16.90;99.90
14397;DHT22;50653;47.810;13.022;2023-07-31T04:46:22;16.90;99.90
14397;DHT22;50653;47.810;13.022;2023-07-31T04:48:48;16.90;99.90
14397;DHT22;50653;47.810;13.022;2023-07-31T04:51:13;16.90;99.90
14397;DHT22;50653;47.810;13.022;2023-07-31T04:53:39;16.90;99.90
14397;DHT22;50653;47.810;13.022;2023-07-31T04:56:04;16.90;99.90
14397;DHT22;50653;47.810;13.022;2023-07-31T04:58:30;16.90;99.90
14397;DHT22;50653;47.810;13.022;2023-07-31T05:00:56;17.00;99.90
14397;DHT22;50653;47.810;13.022;2023-07-31T05:03:21;17.10;99.90
14397;DHT22;50653;47.810;13.022;2023-07-31T05:05:47;17.10;99.90
14397;DHT22;50653;47.810;13.022;2023-07-31T05:08:13;17.10;99.90
14397;DHT22;50653;47.810;13.022;2023-07-31T05:10:39;17.20;99.90
14397;DHT22;50653;47.810;13.022;2023-07-31T05:13:04;17.40;99.90
14397;DHT22;50653;47.810;13.022;2023-07-31T05:15:30;17.30;99.90
14397;DHT22;50653;47.810;13.022;2023-07-31T05:17:56;17.30;99.90
14397;DHT22;50653;47.810;13.022;2023-07-31T05:20:21;17.40;99.90
14397;DHT22;50653;47.810;13.022;2023-07-31T05:22:47;17.10;99.90
14397;DHT22;50653;47.810;13.022;2023-07-31T05:25:13;17.20;99.90
14397;DHT22;50653;47.810;13.022;2023-07-31T05:27:39;17.20;99.90
14397;DHT22;50653;47.810;13.022;2023-07-31T05:30:05;17.10;99.90
14397;DHT22;50653;47.810;13.022;2023-07-31T05:32:32;17.30;99.90
14397;DHT22;50653;47.810;13.022;2023-07-31T05:34:57;17.40;99.90
14397;DHT22;50653;47.810;13.022;2023-07-31T05:37:23;17.50;99.90
14397;DHT22;50653;47.810;13.022;2023-07-31T05:39:49;17.60;99.90
14397;DHT22;50653;47.810;13.022;2023-07-31T05:42:14;17.70;99.90
14397;DHT22;50653;47.810;13.022;2023-07-31T05:44:40;17.70;99.90
14397;DHT22;50653;47.810;13.022;2023-07-31T05:47:06;17.70;99.90
14397;DHT22;50653;47.810;13.022;2023-07-31T05:49:31;17.80;99.90
14397;DHT22;50653;47.810;13.022;2023-07-31T05:51:57;17.80;99.90
14397;DHT22;50653;47.810;13.022;2023-07-31T05:54:23;17.80;99.90
14397;DHT22;50653;47.810;13.022;2023-07-31T05:56:48;17.90;99.90
14397;DHT22;50653;47.810;13.022;2023-07-31T05:59:14;17.90;99.90
14397;DHT22;50653;47.810;13.022;2023-07-31T06:01:40;17.80;99.90
14397;DHT22;50653;47.810;13.022;2023-07-31T06:04:05;18.00;99.90
14397;DHT22;50653;47.810;13.022;2023-07-31T06:06:31;18.00;99.90
14397;DHT22;50653;47.810;13.022;2023-07-31T06:08:57;18.10;99.90
14397;DHT22;50653;47.810;13.022;2023-07-31T06:11:22;18.10;99.90
14397;DHT22;50653;47.810;13.022;2023-07-31T06:13:48;18.10;99.90
14397;DHT22;50653;47.810;13.022;2023-07-31T06:16:16;18.10;99.90
14397;DHT22;50653;47.810;13.022;2023-07-31T06:18:42;18.20;99.90
14397;DHT22;50653;47.810;13.022;2023-07-31T06:21:09;18.40;99.90
14397;DHT22;50653;47.810;13.022;2023-07-31T06:23:35;18.50;99.90
14397;DHT22;50653;47.810;13.022;2023-07-31T06:26:00;18.50;99.90
14397;DHT22;50653;47.810;13.022;2023-07-31T06:28:30;18.70;99.90
14397;DHT22;50653;47.810;13.022;2023-07-31T06:30:59;18.80;99.90
14397;DHT22;50653;47.810;13.022;2023-07-31T06:33:25;18.90;99.90
14397;DHT22;50653;47.810;13.022;2023-07-31T06:35:50;18.80;99.90
14397;DHT22;50653;47.810;13.022;2023-07-31T06:38:27;19.00;99.90
14397;DHT22;50653;47.810;13.022;2023-07-31T06:40:53;19.20;99.90
14397;DHT22;50653;47.810;13.022;2023-07-31T06:43:19;19.20;99.90
14397;DHT22;50653;47.810;13.022;2023-07-31T06:45:45;19.40;99.90
14397;DHT22;50653;47.810;13.022;2023-07-31T06:48:11;19.40;99.90
14397;DHT22;50653;47.810;13.022;2023-07-31T06:50:37;19.50;99.90
14397;DHT22;50653;47.810;13.022;2023-07-31T06:53:03;19.50;99.90
14397;DHT22;50653;47.810;13.022;2023-07-31T06:55:28;19.60;99.90
14397;DHT22;50653;47.810;13.022;2023-07-31T06:57:55;19.60;99.90
14397;DHT22;50653;47.810;13.022;2023-07-31T07:00:21;19.70;99.90
14397;DHT22;50653;47.810;13.022;2023-07-31T07:02:48;19.70;99.90
14397;DHT22;50653;47.810;13.022;2023-07-31T07:05:14;19.70;99.90
14397;DHT22;50653;47.810;13.022;2023-07-31T07:07:40;19.80;99.90
14397;DHT22;50653;47.810;13.022;2023-07-31T07:10:07;19.90;99.90
14397;DHT22;50653;47.810;13.022;2023-07-31T07:12:33;19.80;99.90
14397;DHT22;50653;47.810;13.022;2023-07-31T07:14:59;20.00;99.90
14397;DHT22;50653;47.810;13.022;2023-07-31T07:17:26;20.00;99.90
14397;DHT22;50653;47.810;13.022;2023-07-31T07:19:52;20.10;99.90
14397;DHT22;50653;47.810;13.022;2023-07-31T07:22:18;20.20;99.90
14397;DHT22;50653;47.810;13.022;2023-07-31T07:24:44;20.20;99.90
14397;DHT22;50653;47.810;13.022;2023-07-31T07:27:09;20.30;99.90
14397;DHT22;50653;47.810;13.022;2023-07-31T07:29:35;20.30;99.90
14397;DHT22;50653;47.810;13.022;2023-07-31T07:32:01;20.50;99.90
14397;DHT22;50653;47.810;13.022;2023-07-31T07:34:27;20.50;99.90
14397;DHT22;50653;47.810;13.022;2023-07-31T07:36:54;20.60;99.90
14397;DHT22;50653;47.810;13.022;2023-07-31T07:39:19;20.60;99.90
14397;DHT22;50653;47.810;13.022;2023-07-31T07:41:46;20.60;99.90
14397;DHT22;50653;47.810;13.022;2023-07-31T07:44:12;20.70;99.90
14397;DHT22;50653;47.810;13.022;2023-07-31T07:46:38;20.90;99.90
14397;DHT22;50653;47.810;13.022;2023-07-31T07:49:04;20.90;99.90
14397;DHT22;50653;47.810;13.022;2023-07-31T07:51:30;21.00;99.90
14397;DHT22;50653;47.810;13.022;2023-07-31T07:53:57;21.10;99.90
14397;DHT22;50653;47.810;13.022;2023-07-31T07:56:24;21.20;99.90
14397;DHT22;50653;47.810;13.022;2023-07-31T07:58:50;21.20;99.90
14397;DHT22;50653;47.810;13.022;2023-07-31T08:01:16;21.30;99.90
14397;DHT22;50653;47.810;13.022;2023-07-31T08:03:42;21.40;99.90
14397;DHT22;50653;47.810;13.022;2023-07-31T08:06:07;21.20;99.90
14397;DHT22;50653;47.810;13.022;2023-07-31T08:08:35;21.30;99.90
14397;DHT22;50653;47.810;13.022;2023-07-31T08:11:01;21.50;99.90
14397;DHT22;50653;47.810;13.022;2023-07-31T08:13:27;21.70;99.90
14397;DHT22;50653;47.810;13.022;2023-07-31T08:15:52;21.70;99.90
14397;DHT22;50653;47.810;13.022;2023-07-31T08:18:18;21.60;99.90
14397;DHT22;50653;47.810;13.022;2023-07-31T08:20:44;21.70;99.90
14397;DHT22;50653;47.810;13.022;2023-07-31T08:23:10;21.60;99.90
14397;DHT22;50653;47.810;13.022;2023-07-31T08:25:36;21.40;99.90
14397;DHT22;50653;47.810;13.022;2023-07-31T08:28:05;21.30;99.90
14397;DHT22;50653;47.810;13.022;2023-07-31T08:30:31;21.20;99.90
14397;DHT22;50653;47.810;13.022;2023-07-31T08:32:57;21.40;99.90
14397;DHT22;50653;47.810;13.022;2023-07-31T08:35:24;21.60;99.90
14397;DHT22;50653;47.810;13.022;2023-07-31T08:37:49;21.50;99.90
14397;DHT22;50653;47.810;13.022;2023-07-31T08:40:15;21.50;99.90
14397;DHT22;50653;47.810;13.022;2023-07-31T08:42:44;21.70;99.90
14397;DHT22;50653;47.810;13.022;2023-07-31T08:45:18;21.80;99.90
14397;DHT22;50653;47.810;13.022;2023-07-31T08:47:48;21.80;99.90
14397;DHT22;50653;47.810;13.022;2023-07-31T08:50:16;21.80;99.90
14397;DHT22;50653;47.810;13.022;2023-07-31T08:52:42;21.80;99.90
14397;DHT22;50653;47.810;13.022;2023-07-31T08:55:08;22.10;99.90
14397;DHT22;50653;47.810;13.022;2023-07-31T08:57:36;22.20;99.90
14397;DHT22;50653;47.810;13.022;2023-07-31T09:00:03;22.30;99.90
14397;DHT22;50653;47.810;13.022;2023-07-31T09:02:59;22.50;99.90
14397;DHT22;50653;47.810;13.022;2023-07-31T09:05:26;22.70;99.90
14397;DHT22;50653;47.810;13.022;2023-07-31T09:07:53;22.80;99.90
14397;DHT22;50653;47.810;13.022;2023-07-31T09:10:20;22.90;99.90
14397;DHT22;50653;47.810;13.022;2023-07-31T09:12:46;22.80;99.90
14397;DHT22;50653;47.810;13.022;2023-07-31T09:15:14;22.50;99.90
14397;DHT22;50653;47.810;13.022;2023-07-31T09:17:40;22.50;99.90
14397;DHT22;50653;47.810;13.022;2023-07-31T09:20:19;22.50;99.90
14397;DHT22;50653;47.810;13.022;2023-07-31T09:22:47;22.30;99.90
14397;DHT22;50653;47.810;13.022;2023-07-31T09:25:21;22.20;99.90
14397;DHT22;50653;47.810;13.022;2023-07-31T09:30:14;22.40;99.90
14397;DHT22;50653;47.810;13.022;2023-07-31T09:32:40;22.30;99.90
14397;DHT22;50653;47.810;13.022;2023-07-31T09:37:53;22.40;99.90
14397;DHT22;50653;47.810;13.022;2023-07-31T09:40:36;22.50;99.90
14397;DHT22;50653;47.810;13.022;2023-07-31T09:43:06;22.10;99.90
14397;DHT22;50653;47.810;13.022;2023-07-31T09:45:37;22.00;99.90
14397;DHT22;50653;47.810;13.022;2023-07-31T09:48:06;22.30;99.90
14397;DHT22;50653;47.810;13.022;2023-07-31T09:50:32;22.30;99.90
14397;DHT22;50653;47.810;13.022;2023-07-31T09:52:58;22.20;99.90
14397;DHT22;50653;47.810;13.022;2023-07-31T09:55:24;22.30;99.90
14397;DHT22;50653;47.810;13.022;2023-07-31T09:57:49;22.30;99.90
14397;DHT22;50653;47.810;13.022;2023-07-31T10:00:17;22.50;99.90
14397;DHT22;50653;47.810;13.022;2023-07-31T10:02:46;22.60;99.90
14397;DHT22;50653;47.810;13.022;2023-07-31T10:05:14;22.30;99.90
14397;DHT22;50653;47.810;13.022;2023-07-31T10:07:43;22.30;99.90
14397;DHT22;50653;47.810;13.022;2023-07-31T10:10:11;22.10;99.90
14397;DHT22;50653;47.810;13.022;2023-07-31T10:12:37;22.30;99.90
14397;DHT22;50653;47.810;13.022;2023-07-31T10:15:03;22.60;99.90
14397;DHT22;50653;47.810;13.022;2023-07-31T10:17:30;22.50;99.90
14397;DHT22;50653;47.810;13.022;2023-07-31T10:19:57;22.50;99.90
14397;DHT22;50653;47.810;13.022;2023-07-31T10:22:24;22.40;99.90
14397;DHT22;50653;47.810;13.022;2023-07-31T10:24:52;22.50;99.90
14397;DHT22;50653;47.810;13.022;2023-07-31T10:27:20;22.80;99.90
14397;DHT22;50653;47.810;13.022;2023-07-31T10:29:45;22.80;99.90
14397;DHT22;50653;47.810;13.022;2023-07-31T10:32:15;22.80;99.90
14397;DHT22;50653;47.810;13.022;2023-07-31T10:34:42;22.60;99.90
14397;DHT22;50653;47.810;13.022;2023-07-31T10:37:21;22.20;99.90
14397;DHT22;50653;47.810;13.022;2023-07-31T10:40:26;22.20;99.90
14397;DHT22;50653;47.810;13.022;2023-07-31T10:42:54;22.50;99.90
14397;DHT22;50653;47.810;13.022;2023-07-31T10:48:01;22.40;99.90
14397;DHT22;50653;47.810;13.022;2023-07-31T10:50:28;22.60;99.90
14397;DHT22;50653;47.810;13.022;2023-07-31T10:52:56;22.60;99.90
14397;DHT22;50653;47.810;13.022;2023-07-31T10:55:32;22.80;99.90
14397;DHT22;50653;47.810;13.022;2023-07-31T10:58:06;23.00;99.90
14397;DHT22;50653;47.810;13.022;2023-07-31T11:00:32;22.80;99.90
14397;DHT22;50653;47.810;13.022;2023-07-31T11:03:09;23.00;99.90
14397;DHT22;50653;47.810;13.022;2023-07-31T11:08:18;22.40;99.90
14397;DHT22;50653;47.810;13.022;2023-07-31T11:10:46;22.40;99.90
14397;DHT22;50653;47.810;13.022;2023-07-31T11:13:12;22.70;99.90
14397;DHT22;50653;47.810;13.022;2023-07-31T11:15:38;22.60;99.90
14397;DHT22;50653;47.810;13.022;2023-07-31T11:18:04;22.70;99.90
14397;DHT22;50653;47.810;13.022;2023-07-31T11:20:35;22.80;99.90
14397;DHT22;50653;47.810;13.022;2023-07-31T11:23:02;22.90;99.90
14397;DHT22;50653;47.810;13.022;2023-07-31T11:25:32;22.80;99.90
14397;DHT22;50653;47.810;13.022;2023-07-31T11:28:05;22.80;99.90
14397;DHT22;50653;47.810;13.022;2023-07-31T11:30:31;23.10;99.90
14397;DHT22;50653;47.810;13.022;2023-07-31T11:32:57;22.90;99.90
14397;DHT22;50653;47.810;13.022;2023-07-31T11:35:23;22.90;99.90
14397;DHT22;50653;47.810;13.022;2023-07-31T11:37:49;22.90;99.90
14397;DHT22;50653;47.810;13.022;2023-07-31T11:40:15;22.90;99.90
14397;DHT22;50653;47.810;13.022;2023-07-31T11:42:41;22.90;99.90
14397;DHT22;50653;47.810;13.022;2023-07-31T11:45:09;23.10;99.90
14397;DHT22;50653;47.810;13.022;2023-07-31T11:47:36;23.10;99.90
14397;DHT22;50653;47.810;13.022;2023-07-31T11:50:04;23.00;99.90
14397;DHT22;50653;47.810;13.022;2023-07-31T11:52:34;23.00;99.90
14397;DHT22;50653;47.810;13.022;2023-07-31T11:55:02;22.90;99.90
14397;DHT22;50653;47.810;13.022;2023-07-31T11:57:29;22.70;99.90
14397;DHT22;50653;47.810;13.022;2023-07-31T11:59:55;22.80;99.90
14397;DHT22;50653;47.810;13.022;2023-07-31T12:02:22;23.00;99.90
14397;DHT22;50653;47.810;13.022;2023-07-31T12:04:48;23.00;99.90
14397;DHT22;50653;47.810;13.022;2023-07-31T12:07:13;23.10;99.90
14397;DHT22;50653;47.810;13.022;2023-07-31T12:09:56;23.00;99.90
14397;DHT22;50653;47.810;13.022;2023-07-31T12:12:23;23.00;99.90
14397;DHT22;50653;47.810;13.022;2023-07-31T12:14:49;23.10;99.90
14397;DHT22;50653;47.810;13.022;2023-07-31T12:17:17;23.30;99.90
14397;DHT22;50653;47.810;13.022;2023-07-31T12:19:44;23.40;99.90
14397;DHT22;50653;47.810;13.022;2023-07-31T12:22:16;23.30;99.90
14397;DHT22;50653;47.810;13.022;2023-07-31T12:24:45;23.30;99.90
14397;DHT22;50653;47.810;13.022;2023-07-31T12:27:12;23.30;99.90
14397;DHT22;50653;47.810;13.022;2023-07-31T12:29:38;23.50;99.90
14397;DHT22;50653;47.810;13.022;2023-07-31T12:32:21;23.80;99.90
14397;DHT22;50653;47.810;13.022;2023-07-31T12:34:47;23.60;99.90
14397;DHT22;50653;47.810;13.022;2023-07-31T12:37:13;23.80;99.90
14397;DHT22;50653;47.810;13.022;2023-07-31T12:39:39;24.00;99.90
14397;DHT22;50653;47.810;13.022;2023-07-31T12:42:05;23.80;99.90
14397;DHT22;50653;47.810;13.022;2023-07-31T12:44:30;24.00;99.90
14397;DHT22;50653;47.810;13.022;2023-07-31T12:46:56;23.80;99.90
14397;DHT22;50653;47.810;13.022;2023-07-31T12:49:22;23.50;99.90
14397;DHT22;50653;47.810;13.022;2023-07-31T12:51:47;23.70;99.90
14397;DHT22;50653;47.810;13.022;2023-07-31T12:54:13;23.80;99.90
14397;DHT22;50653;47.810;13.022;2023-07-31T12:56:39;23.70;99.90
14397;DHT22;50653;47.810;13.022;2023-07-31T12:59:05;23.70;99.70
14397;DHT22;50653;47.810;13.022;2023-07-31T13:01:31;23.60;99.90
14397;DHT22;50653;47.810;13.022;2023-07-31T13:03:57;23.80;99.70
14397;DHT22;50653;47.810;13.022;2023-07-31T13:06:24;24.00;99.80
14397;DHT22;50653;47.810;13.022;2023-07-31T13:08:50;24.00;99.90
14397;DHT22;50653;47.810;13.022;2023-07-31T13:11:16;24.40;99.90
14397;DHT22;50653;47.810;13.022;2023-07-31T13:13:41;24.40;98.70
14397;DHT22;50653;47.810;13.022;2023-07-31T13:16:07;24.40;99.00
14397;DHT22;50653;47.810;13.022;2023-07-31T13:18:33;24.60;99.20
14397;DHT22;50653;47.810;13.022;2023-07-31T13:20:59;24.70;98.50
14397;DHT22;50653;47.810;13.022;2023-07-31T13:23:25;24.80;98.70
14397;DHT22;50653;47.810;13.022;2023-07-31T13:25:50;25.00;98.30
14397;DHT22;50653;47.810;13.022;2023-07-31T13:28:16;25.20;98.00
14397;DHT22;50653;47.810;13.022;2023-07-31T13:30:42;25.20;97.30
14397;DHT22;50653;47.810;13.022;2023-07-31T13:33:07;24.90;97.40
14397;DHT22;50653;47.810;13.022;2023-07-31T13:35:33;24.90;98.10
14397;DHT22;50653;47.810;13.022;2023-07-31T13:37:59;24.60;95.30
14397;DHT22;50653;47.810;13.022;2023-07-31T13:40:24;24.60;95.80
14397;DHT22;50653;47.810;13.022;2023-07-31T13:42:50;24.90;97.40
14397;DHT22;50653;47.810;13.022;2023-07-31T13:45:16;24.80;95.60
14397;DHT22;50653;47.810;13.022;2023-07-31T13:47:41;24.90;95.50
14397;DHT22;50653;47.810;13.022;2023-07-31T13:50:07;24.90;95.60
14397;DHT22;50653;47.810;13.022;2023-07-31T13:52:33;24.60;95.10
14397;DHT22;50653;47.810;13.022;2023-07-31T13:54:59;24.80;95.50
14397;DHT22;50653;47.810;13.022;2023-07-31T13:57:24;25.10;96.20
14397;DHT22;50653;47.810;13.022;2023-07-31T13:59:50;24.80;94.80
14397;DHT22;50653;47.810;13.022;2023-07-31T14:02:15;24.90;96.10
14397;DHT22;50653;47.810;13.022;2023-07-31T14:04:41;25.00;96.30
14397;DHT22;50653;47.810;13.022;2023-07-31T14:07:07;25.40;96.00
14397;DHT22;50653;47.810;13.022;2023-07-31T14:09:32;25.50;96.00
14397;DHT22;50653;47.810;13.022;2023-07-31T14:11:58;25.30;94.20
14397;DHT22;50653;47.810;13.022;2023-07-31T14:14:24;25.30;95.20
14397;DHT22;50653;47.810;13.022;2023-07-31T14:16:49;25.80;94.70
14397;DHT22;50653;47.810;13.022;2023-07-31T14:19:15;25.70;93.70
14397;DHT22;50653;47.810;13.022;2023-07-31T14:21:40;25.80;93.50
14397;DHT22;50653;47.810;13.022;2023-07-31T14:24:06;26.30;93.60
14397;DHT22;50653;47.810;13.022;2023-07-31T14:26:32;26.20;92.80
14397;DHT22;50653;47.810;13.022;2023-07-31T14:28:57;26.10;92.60
14397;DHT22;50653;47.810;13.022;2023-07-31T14:31:23;26.00;92.60
14397;DHT22;50653;47.810;13.022;2023-07-31T14:33:48;26.40;93.10
14397;DHT22;50653;47.810;13.022;2023-07-31T14:36:14;26.10;92.20
14397;DHT22;50653;47.810;13.022;2023-07-31T14:38:40;26.20;92.80
14397;DHT22;50653;47.810;13.022;2023-07-31T14:41:05;25.80;92.00
14397;DHT22;50653;47.810;13.022;2023-07-31T14:43:31;26.00;91.80
14397;DHT22;50653;47.810;13.022;2023-07-31T14:45:57;26.60;91.60
14397;DHT22;50653;47.810;13.022;2023-07-31T14:48:24;26.50;91.70
14397;DHT22;50653;47.810;13.022;2023-07-31T14:50:50;26.30;92.20
14397;DHT22;50653;47.810;13.022;2023-07-31T14:53:15;26.40;92.00
14397;DHT22;50653;47.810;13.022;2023-07-31T14:55:41;26.50;91.50
14397;DHT22;50653;47.810;13.022;2023-07-31T14:58:07;26.00;91.40
14397;DHT22;50653;47.810;13.022;2023-07-31T15:00:32;26.00;92.20
14397;DHT22;50653;47.810;13.022;2023-07-31T15:02:58;26.10;91.20
14397;DHT22;50653;47.810;13.022;2023-07-31T15:05:24;26.30;91.60
14397;DHT22;50653;47.810;13.022;2023-07-31T15:07:49;26.60;93.10
14397;DHT22;50653;47.810;13.022;2023-07-31T15:10:15;26.60;92.30
14397;DHT22;50653;47.810;13.022;2023-07-31T15:12:42;26.80;92.60
14397;DHT22;50653;47.810;13.022;2023-07-31T15:15:08;26.80;91.70
14397;DHT22;50653;47.810;13.022;2023-07-31T15:17:33;26.60;91.00
14397;DHT22;50653;47.810;13.022;2023-07-31T15:19:59;26.60;91.20
14397;DHT22;50653;47.810;13.022;2023-07-31T15:22:26;26.60;91.10
14397;DHT22;50653;47.810;13.022;2023-07-31T15:24:51;26.50;90.60
14397;DHT22;50653;47.810;13.022;2023-07-31T15:27:17;26.30;90.30